Terminal Aerodrome Forecast
Issued by NWS Caribou, ME

Home | Current Version | Previous Version | Text Only | Print | Product List | Glossary On
Versions: 1 2 3 4 5 6 7 8 9 10 11 12 13 14 15 16 17 18
000
FTUS41 KCAR 041731
TAFCAR
TAF
KCAR 041731Z 0418/0518 23009KT P6SM SCT040 BKN090
     FM041900 22008KT P6SM VCTS BKN040CB
     FM042300 20004KT P6SM BKN040
     FM050200 21004KT P6SM BKN090
     FM051400 24010KT P6SM BKN040
      TEMPO 0516/0518 -SHRA=

USA.gov is the U.S. government's official web portal to all federal, state and local government web resources and services.